KCID/CID METAR and TAF weather

Enter ICAO airport designator
Station Type Date Time Source
KCID METAR 2020/04/04 05:52 UTC NOAA

KCID 040552Z AUTO 33015KT 10SM -RA OVC011 M02/M03 A3016 RMK AO2 SLP224 P0000 60000 I6003 T10221033 11011 21022 401281022 51006


Station Type Date Time Source
KCID Decoded METAR 2020/04/04 05:52 UTC NOAA

CEDAR RAPIDS AIRPORT, IA, United States (KCID) 41-53N 91-43W
Apr 04, 2020 - 01:52 AM EDT / 2020.04.04 0552 UTC
Wind: from the NNW (330 degrees) at 17 MPH (15 KT):0
Visibility: 10 mile(s):0
Sky conditions: overcast
Weather: light rain
Precipitation last hour: A trace
Temperature: 28.0 F (-2.2 C)
Windchill: 15 F (-9 C):1
Dew Point: 26.1 F (-3.3 C)
Relative Humidity: 92%
Pressure (altimeter): 30.16 in. Hg (1021 hPa)
Pressure tendency: 0.02 inches (0.6 hPa) higher than three hours ago
ob: KCID 040552Z AUTO 33015KT 10SM -RA OVC011 M02/M03 A3016 RMK AO2 SLP224 P0000 60000 I6003 T10221033 11011 21022 401281022 51006
cycle: 6

Station Type Date Time Source
KCID TAF 2020/04/04 06:28 UTC NOAA

TAF KCID 040526Z 0406/0506 33014G20KT P6SM OVC012
FM040900 35012KT P6SM OVC013
FM041200 35009KT P6SM SCT015
FM050000 01003KT P6SM SKC

Example: see airport list